createdAt,value
2022-11-30T00:01:28.179Z,3.42
2022-11-30T00:03:56.005Z,3.41
2022-11-30T00:06:23.721Z,3.36
2022-11-30T00:08:56.375Z,3.36
2022-11-30T00:11:24.289Z,3.37
2022-11-30T00:13:50.769Z,3.37
2022-11-30T00:16:17.086Z,3.33
2022-11-30T00:18:43.517Z,3.33
2022-11-30T00:21:12.884Z,3.35
2022-11-30T00:23:41.687Z,3.27
2022-11-30T00:26:11.060Z,3.30
2022-11-30T00:28:38.642Z,3.30
2022-11-30T00:31:08.637Z,3.29
2022-11-30T00:33:36.617Z,3.27
2022-11-30T00:36:06.678Z,3.23
2022-11-30T00:38:33.677Z,3.24
2022-11-30T00:41:01.567Z,3.26
2022-11-30T00:43:28.146Z,3.28
2022-11-30T00:45:55.140Z,3.29
2022-11-30T00:48:21.716Z,3.28
2022-11-30T00:50:49.408Z,3.27
2022-11-30T00:53:16.179Z,3.22
2022-11-30T00:55:43.987Z,3.13
2022-11-30T00:58:10.756Z,3.20
2022-11-30T01:00:37.499Z,3.24
2022-11-30T01:03:03.883Z,3.23
2022-11-30T01:05:32.081Z,3.27
2022-11-30T01:08:00.655Z,3.29
2022-11-30T01:10:27.170Z,3.35
2022-11-30T01:12:54.050Z,3.33
2022-11-30T01:15:20.443Z,3.36
2022-11-30T01:17:46.823Z,3.37
2022-11-30T01:20:13.259Z,3.39
2022-11-30T01:22:39.553Z,3.38
2022-11-30T01:25:06.034Z,3.47
2022-11-30T01:27:32.323Z,3.45
2022-11-30T01:29:58.639Z,3.45
2022-11-30T01:32:24.990Z,3.50
2022-11-30T01:34:51.304Z,3.47
2022-11-30T01:37:17.599Z,3.45
2022-11-30T01:39:43.907Z,3.40
2022-11-30T01:42:15.600Z,3.44
2022-11-30T01:44:50.905Z,3.47
2022-11-30T01:47:20.776Z,3.47
2022-11-30T01:49:54.034Z,3.49
2022-11-30T01:52:33.615Z,3.47
2022-11-30T01:55:11.644Z,3.43
2022-11-30T01:57:42.328Z,3.33
2022-11-30T02:00:12.467Z,3.37
2022-11-30T02:03:00.652Z,3.41
2022-11-30T02:05:27.865Z,3.38
2022-11-30T02:07:54.683Z,3.37
2022-11-30T02:10:32.707Z,3.36
2022-11-30T02:13:28.786Z,3.35
2022-11-30T02:16:13.151Z,3.28
2022-11-30T02:18:50.151Z,3.29
2022-11-30T02:21:31.577Z,3.30
2022-11-30T02:24:11.197Z,3.30
2022-11-30T02:26:54.586Z,3.20
2022-11-30T02:29:39.709Z,3.16
2022-11-30T02:32:29.012Z,3.20
2022-11-30T02:34:58.216Z,3.27
2022-11-30T02:37:26.398Z,3.33
2022-11-30T02:39:52.734Z,3.36
2022-11-30T02:42:19.007Z,3.29
2022-11-30T02:44:49.110Z,3.32
2022-11-30T02:47:33.855Z,3.30
2022-11-30T02:50:07.460Z,3.34
2022-11-30T02:52:34.726Z,3.34
2022-11-30T02:55:02.918Z,3.34
2022-11-30T02:57:29.278Z,3.35
2022-11-30T02:59:56.177Z,3.26
2022-11-30T03:02:22.549Z,3.28
2022-11-30T03:04:49.093Z,3.34
2022-11-30T03:07:15.719Z,3.28
2022-11-30T03:09:42.072Z,3.26
2022-11-30T03:12:08.383Z,3.28
2022-11-30T03:14:34.660Z,3.31
2022-11-30T03:17:01.279Z,3.27
2022-11-30T03:19:27.643Z,3.29
2022-11-30T03:21:53.955Z,3.34
2022-11-30T03:24:20.306Z,3.29
2022-11-30T03:26:46.588Z,3.16
2022-11-30T03:29:12.918Z,3.16
2022-11-30T03:31:39.263Z,3.22
2022-11-30T03:34:05.551Z,3.20
2022-11-30T03:36:31.890Z,3.24
2022-11-30T03:38:58.330Z,3.24
2022-11-30T03:41:24.670Z,3.23
2022-11-30T03:43:51.139Z,3.24
2022-11-30T03:46:17.650Z,3.24
2022-11-30T03:48:44.453Z,3.20
2022-11-30T03:51:12.409Z,3.19
2022-11-30T03:53:39.520Z,3.23
2022-11-30T03:56:08.229Z,3.24
2022-11-30T03:58:35.367Z,3.16
2022-11-30T04:01:06.551Z,3.20
2022-11-30T04:03:34.482Z,3.19
2022-11-30T04:06:00.837Z,3.25
2022-11-30T04:08:27.785Z,3.27
2022-11-30T04:10:55.746Z,3.25
2022-11-30T04:13:23.263Z,3.28
2022-11-30T04:15:51.436Z,3.30
2022-11-30T04:18:19.691Z,3.28
2022-11-30T04:20:46.653Z,3.26
2022-11-30T04:23:13.502Z,3.24
2022-11-30T04:25:41.328Z,3.17
2022-11-30T04:28:08.819Z,3.10
2022-11-30T04:30:36.676Z,3.15
2022-11-30T04:33:04.006Z,3.15
2022-11-30T04:35:30.311Z,3.22
2022-11-30T04:37:56.593Z,3.20
2022-11-30T04:40:22.902Z,3.15
2022-11-30T04:42:49.201Z,3.20
2022-11-30T04:45:15.775Z,3.23
2022-11-30T04:47:42.521Z,3.23
2022-11-30T04:50:09.755Z,3.27
2022-11-30T04:52:36.453Z,3.30
2022-11-30T04:55:04.201Z,3.27
2022-11-30T04:57:31.260Z,3.30
2022-11-30T04:59:57.733Z,3.35
2022-11-30T05:02:24.077Z,3.41
2022-11-30T05:04:50.825Z,3.36
2022-11-30T05:07:17.490Z,3.28
2022-11-30T05:09:43.808Z,3.28
2022-11-30T05:12:10.104Z,3.28
2022-11-30T05:14:36.444Z,3.29
2022-11-30T05:17:02.776Z,3.35
2022-11-30T05:19:29.099Z,3.40
2022-11-30T05:21:55.403Z,3.34
2022-11-30T05:24:21.677Z,3.31
2022-11-30T05:26:47.994Z,3.34
2022-11-30T05:29:14.277Z,3.28
2022-11-30T05:31:40.897Z,3.32
2022-11-30T05:34:07.266Z,3.31
2022-11-30T05:36:33.579Z,3.23
2022-11-30T05:38:59.865Z,3.26
2022-11-30T05:41:26.251Z,3.29
2022-11-30T05:43:52.543Z,3.26
2022-11-30T05:46:19.028Z,3.22
2022-11-30T05:48:45.390Z,3.24
2022-11-30T05:51:15.274Z,3.22
2022-11-30T05:53:42.955Z,3.30
2022-11-30T05:56:20.434Z,3.30
2022-11-30T05:58:47.184Z,3.37
2022-11-30T06:01:25.459Z,3.30
2022-11-30T06:03:51.867Z,3.25
2022-11-30T06:06:18.718Z,3.27
2022-11-30T06:08:46.445Z,3.37
2022-11-30T06:11:14.937Z,3.32
2022-11-30T06:13:42.065Z,3.20
2022-11-30T06:16:09.831Z,3.18
2022-11-30T06:18:37.264Z,3.29
2022-11-30T06:21:06.442Z,3.27
2022-11-30T06:23:33.105Z,3.25
2022-11-30T06:26:06.879Z,3.26
2022-11-30T06:28:33.823Z,3.18
2022-11-30T06:31:01.116Z,3.26
2022-11-30T06:33:28.102Z,3.27
2022-11-30T06:35:54.440Z,3.23
2022-11-30T06:38:21.765Z,3.31
2022-11-30T06:40:48.209Z,3.16
2022-11-30T06:43:14.660Z,3.25
2022-11-30T06:45:44.430Z,3.23
2022-11-30T06:48:11.694Z,3.30
2022-11-30T06:50:38.155Z,3.37
2022-11-30T06:53:04.630Z,3.36
2022-11-30T06:55:32.743Z,3.39
2022-11-30T06:58:07.391Z,3.36
2022-11-30T07:00:34.022Z,3.37
2022-11-30T07:03:00.313Z,3.39
2022-11-30T07:05:26.861Z,3.40
2022-11-30T07:07:53.206Z,3.36
2022-11-30T07:10:22.622Z,3.41
2022-11-30T07:12:49.709Z,3.35
2022-11-30T07:15:16.463Z,3.37
2022-11-30T07:17:42.815Z,3.28
2022-11-30T07:20:09.702Z,3.29
2022-11-30T07:22:35.973Z,3.35
2022-11-30T07:25:21.072Z,3.41
2022-11-30T07:27:47.341Z,3.26
2022-11-30T07:30:14.010Z,3.27
2022-11-30T07:32:40.279Z,3.29
2022-11-30T07:35:06.833Z,3.27
2022-11-30T07:37:33.139Z,3.33
2022-11-30T07:39:59.451Z,3.33
2022-11-30T07:42:25.716Z,3.37
2022-11-30T07:44:58.162Z,3.34
2022-11-30T07:47:24.855Z,3.38
2022-11-30T07:49:51.137Z,3.40
2022-11-30T07:52:17.503Z,3.44
2022-11-30T07:54:43.847Z,3.49
2022-11-30T07:57:10.150Z,3.42
2022-11-30T07:59:36.445Z,3.42
2022-11-30T08:02:03.013Z,3.35
2022-11-30T08:04:29.435Z,3.32
2022-11-30T08:06:55.837Z,3.34
2022-11-30T08:09:22.717Z,3.40
2022-11-30T08:11:49.157Z,3.45
2022-11-30T08:14:15.554Z,3.42
2022-11-30T08:16:44.007Z,3.44
2022-11-30T08:19:10.440Z,3.39
2022-11-30T08:21:37.968Z,3.40
2022-11-30T08:24:04.665Z,3.42
2022-11-30T08:26:33.295Z,3.48
2022-11-30T08:29:01.021Z,3.52
2022-11-30T08:31:30.525Z,3.42
2022-11-30T08:33:59.114Z,3.43
2022-11-30T08:36:27.010Z,3.41
2022-11-30T08:38:53.698Z,3.42
2022-11-30T08:41:22.073Z,3.40
2022-11-30T08:43:49.549Z,3.41
2022-11-30T08:46:49.652Z,3.38
2022-11-30T08:49:23.111Z,3.42
2022-11-30T08:52:16.543Z,3.46
2022-11-30T08:54:38.945Z,3.44
2022-11-30T08:57:05.215Z,3.40
2022-11-30T08:59:31.970Z,3.40
2022-11-30T09:01:58.259Z,3.43
2022-11-30T09:04:24.617Z,3.47
2022-11-30T09:06:50.883Z,3.48
2022-11-30T09:09:17.232Z,3.47
2022-11-30T09:11:43.633Z,3.47
2022-11-30T09:14:10.156Z,3.41
2022-11-30T09:16:36.582Z,3.45
2022-11-30T09:19:03.398Z,3.49
2022-11-30T09:21:30.331Z,3.43
2022-11-30T09:23:56.897Z,3.38
2022-11-30T09:26:25.126Z,3.38
2022-11-30T09:28:52.842Z,3.35
2022-11-30T09:31:24.428Z,3.34
2022-11-30T09:33:51.474Z,3.38
2022-11-30T09:36:20.841Z,3.38
2022-11-30T09:38:48.076Z,3.48
2022-11-30T09:41:53.881Z,3.56
2022-11-30T09:44:23.300Z,3.61
2022-11-30T09:47:13.550Z,3.52
2022-11-30T09:49:44.072Z,3.63
2022-11-30T09:52:20.672Z,3.56
2022-11-30T09:54:48.058Z,3.55
2022-11-30T09:57:17.313Z,3.57
2022-11-30T09:59:51.778Z,3.57
2022-11-30T10:02:18.791Z,3.60
2022-11-30T10:04:45.622Z,3.63
2022-11-30T10:07:50.996Z,3.63
2022-11-30T10:10:33.317Z,3.52
2022-11-30T10:13:23.281Z,3.49
2022-11-30T10:16:13.947Z,3.50
2022-11-30T10:18:40.228Z,3.56
2022-11-30T10:21:43.828Z,3.63
2022-11-30T10:24:15.033Z,3.62
2022-11-30T10:26:51.846Z,3.64
2022-11-30T10:29:20.782Z,3.72
2022-11-30T10:31:50.989Z,3.69
2022-11-30T10:34:30.209Z,3.63
2022-11-30T10:36:56.450Z,3.61
2022-11-30T10:39:30.624Z,3.68
2022-11-30T10:42:04.805Z,3.58
2022-11-30T10:44:35.469Z,3.54
2022-11-30T10:47:10.965Z,3.59
2022-11-30T10:49:40.018Z,3.62
2022-11-30T10:52:08.985Z,3.59
2022-11-30T10:54:36.898Z,3.55
2022-11-30T10:57:06.658Z,3.59
2022-11-30T10:59:54.846Z,3.58
2022-11-30T11:02:48.174Z,3.58
2022-11-30T11:05:19.340Z,3.61
2022-11-30T11:07:58.716Z,3.49
2022-11-30T11:10:30.490Z,3.54
2022-11-30T11:12:57.691Z,3.63
2022-11-30T11:15:32.688Z,3.66
2022-11-30T11:18:26.352Z,3.61
2022-11-30T11:21:14.367Z,3.63
2022-11-30T11:23:42.761Z,3.65
2022-11-30T11:26:19.065Z,3.57
2022-11-30T11:28:49.671Z,3.57
2022-11-30T11:31:32.800Z,3.63
2022-11-30T11:33:59.249Z,3.59
2022-11-30T11:36:28.916Z,3.53
2022-11-30T11:38:56.151Z,3.54
2022-11-30T11:41:25.435Z,3.56
2022-11-30T11:44:10.058Z,3.51
2022-11-30T11:46:51.938Z,3.57
2022-11-30T11:49:22.040Z,3.60
2022-11-30T11:52:03.833Z,3.64
2022-11-30T11:54:39.146Z,3.61
2022-11-30T11:57:11.599Z,3.65
2022-11-30T11:59:45.941Z,3.71
2022-11-30T12:02:37.615Z,3.61
2022-11-30T12:05:15.612Z,3.61
2022-11-30T12:07:54.722Z,3.59
2022-11-30T12:13:21.232Z,3.65
2022-11-30T12:16:25.149Z,3.59
2022-11-30T12:19:00.897Z,3.62
2022-11-30T12:21:56.639Z,3.60
2022-11-30T12:24:48.387Z,3.62
2022-11-30T12:28:07.438Z,3.55
2022-11-30T12:30:54.786Z,3.58
2022-11-30T12:33:47.826Z,3.55
2022-11-30T12:36:30.519Z,3.66
2022-11-30T12:39:38.495Z,3.60
2022-11-30T12:42:12.377Z,3.57
2022-11-30T12:44:58.117Z,3.53
2022-11-30T12:47:47.255Z,3.57
2022-11-30T12:50:29.474Z,3.55
2022-11-30T12:53:21.907Z,3.55
2022-11-30T12:56:02.618Z,3.58
2022-11-30T12:58:38.048Z,3.47
2022-11-30T13:01:21.536Z,3.43
2022-11-30T13:03:53.417Z,3.57
2022-11-30T13:06:38.098Z,3.57
2022-11-30T13:09:15.236Z,3.57
2022-11-30T13:11:46.215Z,3.48
2022-11-30T13:14:20.103Z,3.46
2022-11-30T13:16:47.943Z,3.45
2022-11-30T13:19:23.140Z,3.43
2022-11-30T13:21:56.857Z,3.47
2022-11-30T13:24:29.429Z,3.42
2022-11-30T13:27:07.022Z,3.41
2022-11-30T13:29:59.240Z,3.38
2022-11-30T13:32:56.630Z,3.39
2022-11-30T13:35:30.158Z,3.41
2022-11-30T13:41:08.706Z,3.43
2022-11-30T13:43:42.567Z,3.48
2022-11-30T13:46:23.483Z,3.49
2022-11-30T13:49:12.292Z,3.44
2022-11-30T13:51:40.092Z,3.39
2022-11-30T13:54:42.276Z,3.37
2022-11-30T13:57:39.220Z,3.34
2022-11-30T14:00:30.244Z,3.28
2022-11-30T14:03:21.593Z,3.37
2022-11-30T14:06:23.272Z,3.28
2022-11-30T14:08:52.191Z,3.30
2022-11-30T14:11:40.189Z,3.32
2022-11-30T14:14:45.352Z,3.35
2022-11-30T14:17:16.715Z,3.38
2022-11-30T14:19:46.047Z,3.33
2022-11-30T14:22:14.406Z,3.38
2022-11-30T14:24:44.040Z,3.41
2022-11-30T14:27:17.446Z,3.40
2022-11-30T14:29:48.586Z,3.25
2022-11-30T14:32:37.882Z,3.34
2022-11-30T14:35:10.354Z,3.38
2022-11-30T14:37:52.575Z,3.30
2022-11-30T14:40:21.816Z,3.30
2022-11-30T14:42:54.252Z,3.28
2022-11-30T14:45:32.471Z,3.37
2022-11-30T14:48:15.538Z,3.35
2022-11-30T14:50:54.743Z,3.41
2022-11-30T14:53:37.529Z,3.37
2022-11-30T14:56:30.082Z,3.29
2022-11-30T14:59:18.363Z,3.25
2022-11-30T15:01:45.284Z,3.29
2022-11-30T15:04:16.016Z,3.27
2022-11-30T15:06:43.169Z,3.19
2022-11-30T15:09:17.914Z,3.29
2022-11-30T15:11:47.086Z,3.29
2022-11-30T15:14:13.975Z,3.31
2022-11-30T15:16:49.203Z,3.26
2022-11-30T15:19:23.199Z,3.24
2022-11-30T15:21:50.876Z,3.27
2022-11-30T15:24:17.632Z,3.27
2022-11-30T15:26:57.455Z,3.29
2022-11-30T15:29:34.632Z,3.24
2022-11-30T15:32:05.188Z,3.22
2022-11-30T15:34:40.057Z,3.18
2022-11-30T15:37:07.552Z,3.13
2022-11-30T15:39:34.039Z,3.12
2022-11-30T15:42:02.631Z,3.11
2022-11-30T15:44:38.645Z,3.11
2022-11-30T15:47:25.456Z,3.08
2022-11-30T15:49:55.760Z,3.09
2022-11-30T15:52:27.515Z,3.09
2022-11-30T15:54:58.727Z,3.15
2022-11-30T15:57:27.189Z,3.12
2022-11-30T16:00:19.134Z,3.17
2022-11-30T16:02:45.695Z,3.13
2022-11-30T16:05:14.502Z,3.15
2022-11-30T16:07:59.832Z,3.15
2022-11-30T16:10:35.468Z,3.15
2022-11-30T16:13:02.218Z,3.15
2022-11-30T16:15:36.355Z,3.24
2022-11-30T16:18:23.464Z,3.22
2022-11-30T16:20:52.740Z,3.28
2022-11-30T16:23:19.770Z,3.24
2022-11-30T16:25:48.277Z,3.18
2022-11-30T16:28:16.454Z,3.24
2022-11-30T16:30:44.140Z,3.20
2022-11-30T16:33:27.679Z,3.29
2022-11-30T16:35:59.238Z,3.33
2022-11-30T16:38:26.096Z,3.29
2022-11-30T16:40:56.121Z,3.20
2022-11-30T16:43:25.695Z,3.17
2022-11-30T16:45:52.025Z,3.21
2022-11-30T16:48:18.892Z,3.26
2022-11-30T16:50:45.457Z,3.25
2022-11-30T16:53:17.185Z,3.19
2022-11-30T16:55:43.610Z,3.22
2022-11-30T16:58:09.935Z,3.25
2022-11-30T17:00:39.588Z,3.27
2022-11-30T17:03:17.623Z,3.25
2022-11-30T17:05:43.947Z,3.14
2022-11-30T17:08:10.864Z,3.18
2022-11-30T17:10:40.035Z,3.20
2022-11-30T17:13:06.520Z,3.26
2022-11-30T17:15:32.851Z,3.29
2022-11-30T17:17:59.284Z,3.31
2022-11-30T17:20:27.428Z,3.30
2022-11-30T17:22:53.836Z,3.31
2022-11-30T17:25:22.633Z,3.29
2022-11-30T17:27:49.731Z,3.22
2022-11-30T17:30:19.807Z,3.30
2022-11-30T17:32:46.410Z,3.29
2022-11-30T17:35:12.785Z,3.39
2022-11-30T17:37:39.152Z,3.32
2022-11-30T17:40:06.966Z,3.31
2022-11-30T17:42:33.314Z,3.35
2022-11-30T17:44:59.602Z,3.45
2022-11-30T17:47:25.912Z,3.44
2022-11-30T17:49:52.386Z,3.40
2022-11-30T17:52:18.730Z,3.33
2022-11-30T17:54:45.115Z,3.32
2022-11-30T17:57:11.629Z,3.33
2022-11-30T17:59:37.978Z,3.34
2022-11-30T18:02:04.792Z,3.34
2022-11-30T18:04:31.192Z,3.32
2022-11-30T18:06:57.507Z,3.32
2022-11-30T18:09:24.234Z,3.26
2022-11-30T18:11:50.583Z,3.35
2022-11-30T18:14:16.973Z,3.32
2022-11-30T18:16:43.279Z,3.36
2022-11-30T18:19:14.740Z,3.29
2022-11-30T18:21:44.018Z,3.35
2022-11-30T18:24:12.089Z,3.43
2022-11-30T18:26:39.311Z,3.43
2022-11-30T18:29:06.144Z,3.33
2022-11-30T18:31:32.536Z,3.33
2022-11-30T18:34:06.247Z,3.32
2022-11-30T18:36:33.653Z,3.42
2022-11-30T18:38:59.994Z,3.36
2022-11-30T18:41:28.370Z,3.35
2022-11-30T18:43:54.724Z,3.36
2022-11-30T18:46:21.282Z,3.40
2022-11-30T18:48:52.560Z,3.40
2022-11-30T18:51:21.461Z,3.45
2022-11-30T18:53:47.917Z,3.38
2022-11-30T18:56:17.477Z,3.37
2022-11-30T18:58:44.590Z,3.44
2022-11-30T19:01:18.394Z,3.36
2022-11-30T19:03:59.427Z,3.32
2022-11-30T19:06:29.790Z,3.38
2022-11-30T19:08:57.028Z,3.37
2022-11-30T19:11:23.563Z,3.35
2022-11-30T19:13:56.829Z,3.35
2022-11-30T19:16:24.633Z,3.36
2022-11-30T19:18:51.951Z,3.36
2022-11-30T19:21:20.403Z,3.47
2022-11-30T19:23:47.047Z,3.43
2022-11-30T19:26:14.272Z,3.44
2022-11-30T19:28:41.997Z,3.41
2022-11-30T19:31:16.847Z,3.34
2022-11-30T19:33:45.429Z,3.42
2022-11-30T19:36:15.339Z,3.47
2022-11-30T19:38:41.764Z,3.39
2022-11-30T19:41:09.983Z,3.39
2022-11-30T19:43:36.900Z,3.48
2022-11-30T19:46:05.468Z,3.46
2022-11-30T19:48:32.320Z,3.42
2022-11-30T19:50:58.730Z,3.47
2022-11-30T19:53:25.076Z,3.40
2022-11-30T19:55:51.620Z,3.43
2022-11-30T19:58:17.884Z,3.41
2022-11-30T20:00:46.611Z,3.48
2022-11-30T20:03:12.971Z,3.51
2022-11-30T20:05:39.262Z,3.51
2022-11-30T20:08:05.999Z,3.51
2022-11-30T20:10:32.395Z,3.49
2022-11-30T20:12:59.298Z,3.39
2022-11-30T20:15:25.609Z,3.51
2022-11-30T20:17:51.879Z,3.53
2022-11-30T20:20:18.186Z,3.47
2022-11-30T20:22:44.456Z,3.40
2022-11-30T20:25:10.753Z,3.46
2022-11-30T20:27:37.061Z,3.41
2022-11-30T20:30:04.217Z,3.37
2022-11-30T20:32:30.553Z,3.35
2022-11-30T20:34:56.828Z,3.37
2022-11-30T20:37:23.124Z,3.34
2022-11-30T20:39:49.424Z,3.31
2022-11-30T20:42:15.699Z,3.38
2022-11-30T20:44:41.999Z,3.41
2022-11-30T20:47:08.413Z,3.34
2022-11-30T20:49:34.713Z,3.35
2022-11-30T20:52:01.016Z,3.38
2022-11-30T20:54:30.318Z,3.39
2022-11-30T20:56:58.719Z,3.36
2022-11-30T20:59:26.566Z,3.33
2022-11-30T21:01:56.553Z,3.35
2022-11-30T21:04:25.564Z,3.32
2022-11-30T21:06:52.794Z,3.31
2022-11-30T21:09:19.858Z,3.34
2022-11-30T21:11:47.640Z,3.37
2022-11-30T21:14:14.356Z,3.35
2022-11-30T21:16:41.368Z,3.39
2022-11-30T21:19:07.819Z,3.37
2022-11-30T21:21:35.263Z,3.35
2022-11-30T21:24:04.833Z,3.29
2022-11-30T21:26:34.435Z,3.29
2022-11-30T21:29:04.737Z,3.30
2022-11-30T21:31:31.481Z,3.31
2022-11-30T21:33:58.597Z,3.31
2022-11-30T21:36:24.978Z,3.34
2022-11-30T21:39:02.629Z,3.34
2022-11-30T21:41:31.123Z,3.30
2022-11-30T21:43:57.663Z,3.39
2022-11-30T21:46:24.148Z,3.39
2022-11-30T21:48:50.901Z,3.35
2022-11-30T21:51:25.972Z,3.35
2022-11-30T21:53:54.506Z,3.30
2022-11-30T21:56:23.456Z,3.39
2022-11-30T21:58:50.788Z,3.38
2022-11-30T22:01:20.240Z,3.31
2022-11-30T22:03:46.944Z,3.30
2022-11-30T22:06:15.902Z,3.36
2022-11-30T22:08:42.586Z,3.41
2022-11-30T22:11:11.576Z,3.39
2022-11-30T22:13:38.550Z,3.37
2022-11-30T22:16:06.378Z,3.39
2022-11-30T22:18:33.191Z,3.31
2022-11-30T22:21:04.813Z,3.24
2022-11-30T22:23:33.398Z,3.20
2022-11-30T22:26:10.870Z,3.23
2022-11-30T22:28:37.361Z,3.30
2022-11-30T22:31:05.185Z,3.26
2022-11-30T22:33:33.823Z,3.22
2022-11-30T22:36:01.312Z,3.16
2022-11-30T22:38:28.555Z,3.18
2022-11-30T22:40:55.291Z,3.15
2022-11-30T22:43:21.563Z,3.15
2022-11-30T22:45:47.862Z,3.18
2022-11-30T22:48:14.138Z,3.18
2022-11-30T22:50:40.422Z,3.19
2022-11-30T22:53:06.751Z,3.18
2022-11-30T22:55:33.347Z,3.22
2022-11-30T22:57:59.706Z,3.19
2022-11-30T23:00:25.975Z,3.26
2022-11-30T23:02:52.303Z,3.24
2022-11-30T23:05:18.680Z,3.17
2022-11-30T23:07:45.065Z,3.21
2022-11-30T23:10:11.866Z,3.15
2022-11-30T23:12:58.471Z,3.16
2022-11-30T23:15:24.804Z,3.19
2022-11-30T23:17:51.085Z,3.17
2022-11-30T23:20:17.450Z,3.19
2022-11-30T23:22:43.727Z,3.21
2022-11-30T23:25:10.011Z,3.29
2022-11-30T23:27:36.308Z,3.27
2022-11-30T23:30:02.612Z,3.20
2022-11-30T23:32:28.929Z,3.24
2022-11-30T23:35:07.945Z,3.29
2022-11-30T23:37:34.294Z,3.23
2022-11-30T23:40:00.583Z,3.18
2022-11-30T23:42:26.860Z,3.21
2022-11-30T23:44:57.391Z,3.24
2022-11-30T23:47:23.746Z,3.26
2022-11-30T23:49:50.326Z,3.29
2022-11-30T23:52:16.854Z,3.26
2022-11-30T23:54:43.119Z,3.23
2022-11-30T23:57:09.400Z,3.26
2022-11-30T23:59:35.671Z,3.28
